Main page
METAR-TAF:

METAR-TAF

Airports :

Alicante–Elche Airport

Alicante, Spain

latitude: 38-17N, longitude: 000-33W, elevation: 43 m

Current weather observation

The report was made 43 minutes ago, at 07:00 UTC
Wind 7 kt from the North/Northeast
Temperature 16°C
Humidity 59%
Pressure 1017 hPa
Visibility 10 km or more
Few clouds at a height of 2000 ft

METAR: LEAL 210700Z 02007KT 9999 FEW020 16/08 Q1017 NOSIG

Time: 09:43 (07:43 UTC)

Forecast

The report was made 2 hours and 43 minutes ago, at 05:00 UTC
Forecast valid from 21 at 06 UTC to 22 at 06 UTC
Wind 5 kt from the North
Visibility 10 km or more
Few clouds at a height of 2000 ft
Becoming
from 21 at 10 UTC to 21 at 12 UTC
Wind 10 kt from the East
Becoming
from 21 at 19 UTC to 21 at 21 UTC
Wind 5 kt from the Northwest

TAF: LEAL 210500Z 2106/2206 36005KT 9999 FEW020 TX20/2112Z TN12/2106Z BECMG 2110/2112 10010KT BECMG 2119/2121 31005KT

Weather observations and forecasts of more than 4000 airports (METAR and TAF reports).

The available stations are represented by yellow and red dots on the map.

Hover mouse over dot to see the name of the station.

Then click to see weather observations and forecasts.

To change the map : click on the green buttons with a black cross to zoom in, on the green button with a dash to zoom out, or on the green arrows for adjacent maps.


METAR-TAF: